createdAt,value
2022-08-01T00:02:22.952Z,16.09
2022-08-01T00:07:25.226Z,15.87
2022-08-01T00:12:27.660Z,15.69
2022-08-01T00:17:29.795Z,15.78
2022-08-01T00:22:33.436Z,16.16
2022-08-01T00:27:37.810Z,15.92
2022-08-01T00:32:40.325Z,15.49
2022-08-01T00:37:42.636Z,15.38
2022-08-01T00:42:44.844Z,15.30
2022-08-01T00:47:47.141Z,15.31
2022-08-01T00:52:51.526Z,15.18
2022-08-01T00:58:02.654Z,15.07
2022-08-01T01:03:07.841Z,15.35
2022-08-01T01:08:18.160Z,15.49
2022-08-01T01:13:50.181Z,15.35
2022-08-01T01:18:56.187Z,15.13
2022-08-01T01:24:28.472Z,14.75
2022-08-01T01:29:58.575Z,14.62
2022-08-01T01:35:10.637Z,14.85
2022-08-01T01:40:15.219Z,15.17
2022-08-01T01:45:18.939Z,15.07
2022-08-01T01:50:26.281Z,15.19
2022-08-01T01:55:29.871Z,14.85
2022-08-01T02:00:34.013Z,14.94
2022-08-01T02:05:40.137Z,15.01
2022-08-01T02:11:03.700Z,14.65
2022-08-01T02:16:07.146Z,14.85
2022-08-01T02:21:13.166Z,14.55
2022-08-01T02:26:18.592Z,14.90
2022-08-01T02:31:23.863Z,14.73
2022-08-01T02:36:33.100Z,14.62
2022-08-01T02:41:41.425Z,14.65
2022-08-01T02:46:52.752Z,14.67
2022-08-01T02:51:57.145Z,14.45
2022-08-01T02:57:01.902Z,14.34
2022-08-01T03:02:06.473Z,14.55
2022-08-01T03:07:12.899Z,14.67
2022-08-01T03:12:20.050Z,14.46
2022-08-01T03:17:25.939Z,14.42
2022-08-01T03:22:30.606Z,14.67
2022-08-01T03:27:34.282Z,14.84
2022-08-01T03:32:36.900Z,14.82
2022-08-01T03:38:14.773Z,14.79
2022-08-01T03:43:20.544Z,14.89
2022-08-01T03:48:31.008Z,14.67
2022-08-01T03:53:35.363Z,14.67
2022-08-01T03:58:40.567Z,14.89
2022-08-01T04:03:43.743Z,14.93
2022-08-01T04:08:56.788Z,14.60
2022-08-01T04:13:59.422Z,14.67
2022-08-01T04:19:02.496Z,14.78
2022-08-01T04:24:19.010Z,14.91
2022-08-01T04:29:22.996Z,15.20
2022-08-01T04:34:29.946Z,15.46
2022-08-01T04:39:50.812Z,15.63
2022-08-01T04:44:53.822Z,15.76
2022-08-01T04:49:57.848Z,16.27
2022-08-01T04:54:59.974Z,16.92
2022-08-01T05:00:03.726Z,17.17
2022-08-01T05:05:09.226Z,17.74
2022-08-01T05:10:11.376Z,19.21
2022-08-01T05:15:15.669Z,20.41
2022-08-01T05:20:18.285Z,20.64
2022-08-01T05:25:53.128Z,21.88
2022-08-01T05:30:45.575Z,22.21
2022-08-01T05:35:49.359Z,22.83
2022-08-01T05:41:32.034Z,23.41
2022-08-01T05:46:38.436Z,23.75
2022-08-01T05:51:40.732Z,24.41
2022-08-01T05:56:42.878Z,25.55
2022-08-01T06:01:45.114Z,24.67
2022-08-01T06:06:48.004Z,25.08
2022-08-01T06:11:50.152Z,25.83
2022-08-01T06:16:52.405Z,26.08
2022-08-01T06:21:54.748Z,25.95
2022-08-01T06:26:56.934Z,27.71
2022-08-01T06:31:59.192Z,29.82
2022-08-01T06:37:01.305Z,31.45
2022-08-01T06:42:10.560Z,31.43
2022-08-01T06:47:12.828Z,30.54
2022-08-01T06:52:15.025Z,31.57
2022-08-01T06:57:17.523Z,33.50
2022-08-01T07:02:23.006Z,32.31
2022-08-01T07:07:25.458Z,31.70
2022-08-01T07:12:29.470Z,30.55
2022-08-01T07:17:31.611Z,31.13
2022-08-01T07:22:33.777Z,30.99
2022-08-01T07:27:39.605Z,31.10
2022-08-01T07:32:41.975Z,31.04
2022-08-01T07:37:48.956Z,29.42
2022-08-01T07:42:54.022Z,29.85
2022-08-01T07:47:56.606Z,30.54
2022-08-01T07:52:59.024Z,29.04
2022-08-01T07:58:01.653Z,28.40
2022-08-01T08:03:03.844Z,29.29
2022-08-01T08:08:07.216Z,28.28
2022-08-01T08:13:09.695Z,29.84
2022-08-01T08:18:12.107Z,29.93
2022-08-01T08:23:41.949Z,29.68
2022-08-01T08:28:45.645Z,30.76
2022-08-01T08:33:47.912Z,30.75
2022-08-01T08:38:50.289Z,31.12
2022-08-01T08:43:54.710Z,30.49
2022-08-01T08:48:57.686Z,30.28
2022-08-01T08:54:04.149Z,29.92
2022-08-01T08:59:06.874Z,30.30
2022-08-01T09:04:15.137Z,30.61
2022-08-01T09:09:18.193Z,29.66
2022-08-01T09:14:31.734Z,30.15
2022-08-01T09:19:54.606Z,30.41
2022-08-01T09:25:12.102Z,29.37
2022-08-01T09:30:19.559Z,30.21
2022-08-01T09:35:43.838Z,30.93
2022-08-01T09:40:54.208Z,29.44
2022-08-01T09:45:57.857Z,28.92
2022-08-01T09:51:09.329Z,29.53
2022-08-01T09:56:14.005Z,29.32
2022-08-01T10:01:17.762Z,29.41
2022-08-01T10:06:24.748Z,30.44
2022-08-01T10:11:36.447Z,29.87
2022-08-01T10:16:40.593Z,28.15
2022-08-01T10:21:57.074Z,29.49
2022-08-01T10:27:09.293Z,29.46
2022-08-01T10:32:17.497Z,29.52
2022-08-01T10:37:20.229Z,28.72
2022-08-01T10:42:23.029Z,28.59
2022-08-01T10:47:49.753Z,28.53
2022-08-01T10:53:23.873Z,29.10
2022-08-01T10:58:42.782Z,30.19
2022-08-01T11:04:18.203Z,29.51
2022-08-01T11:09:42.195Z,29.35
2022-08-01T11:14:59.981Z,29.26
2022-08-01T11:20:05.556Z,28.56
2022-08-01T11:25:07.909Z,28.33
2022-08-01T11:30:13.276Z,28.86
2022-08-01T11:35:17.109Z,28.42
2022-08-01T11:40:30.426Z,28.22
2022-08-01T11:45:56.934Z,28.96
2022-08-01T11:51:02.035Z,28.26
2022-08-01T11:56:05.601Z,28.14
2022-08-01T12:01:08.117Z,29.12
2022-08-01T12:06:11.189Z,29.52
2022-08-01T12:11:13.744Z,28.83
2022-08-01T12:16:16.445Z,28.53
2022-08-01T12:21:20.546Z,28.00
2022-08-01T12:26:28.515Z,28.00
2022-08-01T12:31:37.735Z,27.64
2022-08-01T12:36:40.132Z,28.11
2022-08-01T12:41:45.191Z,28.07
2022-08-01T12:46:47.554Z,27.59
2022-08-01T12:51:57.195Z,27.67
2022-08-01T12:57:07.146Z,27.80
2022-08-01T13:02:10.394Z,27.19
2022-08-01T13:07:14.662Z,27.50
2022-08-01T13:12:43.883Z,27.68
2022-08-01T13:17:51.751Z,27.51
2022-08-01T13:22:56.169Z,27.88
2022-08-01T13:28:29.367Z,27.24
2022-08-01T13:33:44.571Z,27.11
2022-08-01T13:39:06.062Z,27.08
2022-08-01T13:44:10.148Z,27.22
2022-08-01T13:49:16.218Z,27.77
2022-08-01T13:54:19.294Z,27.68
2022-08-01T13:59:22.503Z,27.58
2022-08-01T14:04:24.913Z,27.25
2022-08-01T14:09:32.512Z,27.50
2022-08-01T14:14:38.124Z,27.71
2022-08-01T14:19:46.362Z,27.29
2022-08-01T14:24:51.217Z,27.64
2022-08-01T14:30:05.458Z,27.48
2022-08-01T14:35:08.709Z,27.25
2022-08-01T14:40:11.676Z,27.10
2022-08-01T14:45:14.786Z,27.38
2022-08-01T14:50:17.402Z,27.63
2022-08-01T14:55:24.567Z,27.22
2022-08-01T15:00:26.994Z,27.02
2022-08-01T15:05:30.125Z,27.26
2022-08-01T15:10:33.416Z,27.11
2022-08-01T15:15:35.536Z,26.71
2022-08-01T15:20:40.805Z,26.63
2022-08-01T15:25:43.238Z,26.62
2022-08-01T15:30:46.504Z,26.78
2022-08-01T15:35:48.709Z,26.67
2022-08-01T15:41:04.923Z,26.20
2022-08-01T15:46:08.575Z,25.97
2022-08-01T15:51:12.247Z,25.60
2022-08-01T15:56:14.998Z,25.78
2022-08-01T16:01:17.511Z,25.93
2022-08-01T16:06:20.255Z,25.79
2022-08-01T16:11:24.188Z,26.07
2022-08-01T16:16:26.666Z,25.95
2022-08-01T16:21:29.168Z,25.82
2022-08-01T16:26:31.922Z,25.52
2022-08-01T16:31:42.192Z,25.32
2022-08-01T16:36:56.497Z,25.25
2022-08-01T16:41:59.099Z,25.13
2022-08-01T16:47:19.504Z,24.99
2022-08-01T16:52:28.674Z,25.13
2022-08-01T16:57:39.450Z,25.07
2022-08-01T17:02:48.543Z,24.72
2022-08-01T17:07:51.064Z,24.86
2022-08-01T17:12:53.562Z,24.88
2022-08-01T17:17:56.502Z,24.59
2022-08-01T17:22:59.147Z,24.58
2022-08-01T17:28:06.129Z,23.86
2022-08-01T17:33:11.610Z,23.71
2022-08-01T17:38:14.336Z,23.38
2022-08-01T17:43:16.813Z,23.46
2022-08-01T17:48:20.253Z,23.06
2022-08-01T17:53:24.296Z,22.83
2022-08-01T17:58:36.759Z,22.11
2022-08-01T18:03:50.636Z,22.11
2022-08-01T18:08:56.056Z,21.92
2022-08-01T18:13:59.670Z,22.06
2022-08-01T18:19:05.500Z,21.42
2022-08-01T18:24:07.994Z,21.54
2022-08-01T18:29:11.009Z,21.34
2022-08-01T18:34:14.761Z,21.32
2022-08-01T18:39:19.525Z,21.14
2022-08-01T18:44:24.301Z,20.83
2022-08-01T18:49:26.786Z,20.84
2022-08-01T18:54:30.397Z,20.89
2022-08-01T18:59:35.584Z,20.59
2022-08-01T19:04:45.011Z,20.36
2022-08-01T19:09:47.456Z,20.20
2022-08-01T19:14:50.074Z,20.06
2022-08-01T19:19:58.944Z,20.01
2022-08-01T19:25:06.191Z,20.04
2022-08-01T19:30:10.339Z,20.25
2022-08-01T19:35:15.114Z,20.35
2022-08-01T19:40:26.716Z,20.20
2022-08-01T19:45:33.687Z,20.01
2022-08-01T19:50:44.679Z,19.64
2022-08-01T19:55:56.055Z,19.37
2022-08-01T20:00:58.548Z,19.66
2022-08-01T20:06:07.103Z,19.66
2022-08-01T20:11:39.780Z,19.41
2022-08-01T20:16:42.974Z,19.61
2022-08-01T20:22:03.039Z,19.94
2022-08-01T20:32:29.534Z,19.73
2022-08-01T20:38:04.144Z,19.84
2022-08-01T20:43:03.945Z,19.69
2022-08-01T20:48:17.806Z,20.20
2022-08-01T20:53:22.345Z,19.92
2022-08-01T20:58:40.701Z,19.92
2022-08-01T21:04:04.038Z,19.59
2022-08-01T21:09:06.893Z,19.63
2022-08-01T21:14:19.655Z,20.03
2022-08-01T21:19:45.531Z,20.51
2022-08-01T21:25:03.781Z,20.68
2022-08-01T21:30:11.372Z,20.63
2022-08-01T21:35:15.881Z,20.69
2022-08-01T21:40:26.055Z,21.05
2022-08-01T21:45:30.409Z,21.22
2022-08-01T21:50:44.585Z,21.28
2022-08-01T21:56:14.869Z,21.50
2022-08-01T22:01:51.335Z,21.44
2022-08-01T22:06:57.302Z,21.18
2022-08-01T22:12:07.159Z,21.39
2022-08-01T22:17:13.845Z,21.26
2022-08-01T22:22:44.586Z,21.35
2022-08-01T22:28:05.973Z,21.03
2022-08-01T22:33:15.669Z,21.07
2022-08-01T22:38:23.790Z,20.98
2022-08-01T22:43:40.075Z,20.83
2022-08-01T22:48:50.086Z,20.99
2022-08-01T22:54:09.486Z,20.82
2022-08-01T22:59:41.696Z,20.58
2022-08-01T23:04:48.454Z,20.72
2022-08-01T23:09:54.965Z,20.56
2022-08-01T23:14:59.469Z,20.61
2022-08-01T23:20:12.778Z,20.51
2022-08-01T23:25:16.183Z,19.75
2022-08-01T23:30:18.532Z,19.39
2022-08-01T23:35:21.018Z,19.12
2022-08-01T23:40:24.965Z,18.65
2022-08-01T23:45:27.723Z,18.43
2022-08-01T23:50:29.972Z,18.36
2022-08-01T23:55:37.608Z,18.12
